createdAt,value
2023-02-26T00:00:55.319Z,1.87
2023-02-26T00:02:58.582Z,1.87
2023-02-26T00:05:01.339Z,1.60
2023-02-26T00:07:05.916Z,2.33
2023-02-26T00:09:08.871Z,2.20
2023-02-26T00:11:14.056Z,2.03
2023-02-26T00:13:17.521Z,2.43
2023-02-26T00:15:21.201Z,2.03
2023-02-26T00:17:40.643Z,1.80
2023-02-26T00:19:44.087Z,1.60
2023-02-26T00:21:47.499Z,1.60
2023-02-26T00:23:50.669Z,2.10
2023-02-26T00:25:53.461Z,1.40
2023-02-26T00:27:56.815Z,1.90
2023-02-26T00:30:00.286Z,1.87
2023-02-26T00:32:03.967Z,1.60
2023-02-26T00:34:12.472Z,1.17
2023-02-26T00:36:23.975Z,1.57
2023-02-26T00:38:28.510Z,2.07
2023-02-26T00:40:39.301Z,1.43
2023-02-26T00:42:43.216Z,1.40
2023-02-26T00:44:47.236Z,1.63
2023-02-26T00:46:55.048Z,1.60
2023-02-26T00:49:04.618Z,1.37
2023-02-26T00:51:22.041Z,1.70
2023-02-26T00:53:30.656Z,1.60
2023-02-26T00:55:33.460Z,1.63
2023-02-26T00:57:36.584Z,1.70
2023-02-26T00:59:39.573Z,1.80
2023-02-26T01:01:43.172Z,1.30
2023-02-26T01:03:46.457Z,1.70
2023-02-26T01:05:49.603Z,1.70
2023-02-26T01:08:03.380Z,2.20
2023-02-26T01:10:07.297Z,1.90
2023-02-26T01:12:13.700Z,2.23
2023-02-26T01:14:17.449Z,1.90
2023-02-26T01:16:25.802Z,2.00
2023-02-26T01:18:35.775Z,1.50
2023-02-26T01:20:44.876Z,1.33
2023-02-26T01:22:53.139Z,1.77
2023-02-26T01:25:03.521Z,1.97
2023-02-26T01:27:06.750Z,1.80
2023-02-26T01:29:10.090Z,1.87
2023-02-26T01:31:24.570Z,1.80
2023-02-26T01:33:31.513Z,1.70
2023-02-26T01:35:42.863Z,1.83
2023-02-26T01:37:53.951Z,1.70
2023-02-26T01:40:18.866Z,1.50
2023-02-26T01:42:24.861Z,1.90
2023-02-26T01:44:32.206Z,1.80
2023-02-26T01:46:44.611Z,1.60
2023-02-26T01:48:51.483Z,2.03
2023-02-26T01:50:54.294Z,1.40
2023-02-26T01:53:19.337Z,1.67
2023-02-26T01:55:26.076Z,1.43
2023-02-26T01:57:28.930Z,1.73
2023-02-26T01:59:32.201Z,2.00
2023-02-26T02:01:35.301Z,1.90
2023-02-26T02:03:40.777Z,1.80
2023-02-26T02:05:48.171Z,1.37
2023-02-26T02:07:51.640Z,1.90
2023-02-26T02:09:54.618Z,1.87
2023-02-26T02:12:12.940Z,1.73
2023-02-26T02:14:25.134Z,1.80
2023-02-26T02:16:38.614Z,1.70
2023-02-26T02:18:50.432Z,1.90
2023-02-26T02:21:05.872Z,1.90
2023-02-26T02:23:21.175Z,1.87
2023-02-26T02:25:55.794Z,1.97
2023-02-26T02:28:08.973Z,1.90
2023-02-26T02:30:30.146Z,2.10
2023-02-26T02:32:39.876Z,1.83
2023-02-26T02:34:48.927Z,1.57
2023-02-26T02:36:57.898Z,2.30
2023-02-26T02:39:06.945Z,1.70
2023-02-26T02:41:16.059Z,1.90
2023-02-26T02:43:23.186Z,1.90
2023-02-26T02:45:31.155Z,2.10
2023-02-26T02:47:39.431Z,1.97
2023-02-26T02:49:47.840Z,1.73
2023-02-26T02:51:55.399Z,2.00
2023-02-26T02:54:04.585Z,2.23
2023-02-26T02:56:12.410Z,2.03
2023-02-26T02:58:19.776Z,2.10
2023-02-26T03:00:25.277Z,2.13
2023-02-26T03:02:34.635Z,3.33
2023-02-26T03:04:39.694Z,2.40
2023-02-26T03:06:43.213Z,2.60
2023-02-26T03:08:48.907Z,2.33
2023-02-26T03:10:52.318Z,2.10
2023-02-26T03:12:55.194Z,2.37
2023-02-26T03:14:58.082Z,2.10
2023-02-26T03:17:21.675Z,2.00
2023-02-26T03:19:32.464Z,2.20
2023-02-26T03:21:44.756Z,1.73
2023-02-26T03:23:55.361Z,1.87
2023-02-26T03:26:05.536Z,1.97
2023-02-26T03:28:13.950Z,1.90
2023-02-26T03:30:21.747Z,1.77
2023-02-26T03:32:29.027Z,2.33
2023-02-26T03:34:37.088Z,1.97
2023-02-26T03:36:46.147Z,2.00
2023-02-26T03:38:52.369Z,2.13
2023-02-26T03:41:00.815Z,1.90
2023-02-26T03:43:08.280Z,1.80
2023-02-26T03:45:14.961Z,2.17
2023-02-26T03:47:17.993Z,2.10
2023-02-26T03:49:25.567Z,2.10
2023-02-26T03:51:29.889Z,2.30
2023-02-26T03:53:39.450Z,2.37
2023-02-26T03:55:46.417Z,2.07
2023-02-26T03:57:50.272Z,1.80
2023-02-26T03:59:53.263Z,2.33
2023-02-26T04:02:00.394Z,2.40
2023-02-26T04:04:08.635Z,2.07
2023-02-26T04:06:12.186Z,2.30
2023-02-26T04:08:15.429Z,2.37
2023-02-26T04:10:22.253Z,2.20
2023-02-26T04:12:27.213Z,3.07
2023-02-26T04:14:30.161Z,2.20
2023-02-26T04:16:32.991Z,2.77
2023-02-26T04:18:35.869Z,2.47
2023-02-26T04:20:38.879Z,2.10
2023-02-26T04:22:41.993Z,2.70
2023-02-26T04:24:44.784Z,2.00
2023-02-26T04:26:49.229Z,2.30
2023-02-26T04:28:52.010Z,2.30
2023-02-26T04:30:55.039Z,2.10
2023-02-26T04:32:57.954Z,1.80
2023-02-26T04:35:00.827Z,2.00
2023-02-26T04:37:03.795Z,2.00
2023-02-26T04:39:06.634Z,2.10
2023-02-26T04:41:09.461Z,1.93
2023-02-26T04:43:13.667Z,1.83
2023-02-26T04:45:16.800Z,1.60
2023-02-26T04:47:19.681Z,1.87
2023-02-26T04:49:22.661Z,1.80
2023-02-26T04:51:25.921Z,1.70
2023-02-26T04:53:28.976Z,2.10
2023-02-26T04:55:31.951Z,2.33
2023-02-26T04:57:35.261Z,2.13
2023-02-26T04:59:39.711Z,2.47
2023-02-26T05:01:42.556Z,1.97
2023-02-26T05:03:45.409Z,1.93
2023-02-26T05:05:48.562Z,1.87
2023-02-26T05:07:53.821Z,1.77
2023-02-26T05:09:57.396Z,2.00
2023-02-26T05:12:00.410Z,2.20
2023-02-26T05:14:03.292Z,1.80
2023-02-26T05:16:08.978Z,1.93
2023-02-26T05:18:11.946Z,2.03
2023-02-26T05:20:15.532Z,1.97
2023-02-26T05:22:18.585Z,1.80
2023-02-26T05:24:21.512Z,1.80
2023-02-26T05:26:24.691Z,1.67
2023-02-26T05:28:28.461Z,1.90
2023-02-26T05:30:31.225Z,1.70
2023-02-26T05:32:35.453Z,1.90
2023-02-26T05:34:38.357Z,1.80
2023-02-26T05:36:41.163Z,1.83
2023-02-26T05:38:44.285Z,1.60
2023-02-26T05:40:47.137Z,1.87
2023-02-26T05:42:49.928Z,1.57
2023-02-26T05:44:52.695Z,1.77
2023-02-26T05:46:56.279Z,2.10
2023-02-26T05:49:00.444Z,1.80
2023-02-26T05:51:03.213Z,1.43
2023-02-26T05:53:06.001Z,1.80
2023-02-26T05:55:10.655Z,1.90
2023-02-26T05:57:13.421Z,1.60
2023-02-26T05:59:16.272Z,1.93
2023-02-26T06:01:19.149Z,1.80
2023-02-26T06:03:21.951Z,2.93
2023-02-26T06:05:26.274Z,8.10
2023-02-26T06:07:29.072Z,6.17
2023-02-26T06:09:31.932Z,5.40
2023-02-26T06:11:34.785Z,4.07
2023-02-26T06:13:37.875Z,2.70
2023-02-26T06:15:40.710Z,2.20
2023-02-26T06:17:43.578Z,2.20
2023-02-26T06:19:46.396Z,1.90
2023-02-26T06:21:50.568Z,2.20
2023-02-26T06:23:53.428Z,2.90
2023-02-26T06:25:56.319Z,2.50
2023-02-26T06:27:59.122Z,2.50
2023-02-26T06:30:02.348Z,2.57
2023-02-26T06:32:05.499Z,2.10
2023-02-26T06:34:08.423Z,3.10
2023-02-26T06:36:11.625Z,5.97
2023-02-26T06:38:16.167Z,2.17
2023-02-26T06:40:19.422Z,1.60
2023-02-26T06:42:22.965Z,1.80
2023-02-26T06:44:25.840Z,1.60
2023-02-26T06:46:28.737Z,1.50
2023-02-26T06:48:31.695Z,2.30
2023-02-26T06:50:34.550Z,1.67
2023-02-26T06:52:37.753Z,2.47
2023-02-26T06:54:42.119Z,5.60
2023-02-26T06:56:44.943Z,5.03
2023-02-26T06:58:47.794Z,3.90
2023-02-26T07:00:50.644Z,3.50
2023-02-26T07:02:53.786Z,1.97
2023-02-26T07:04:56.821Z,3.30
2023-02-26T07:06:59.630Z,2.60
2023-02-26T07:09:02.476Z,2.27
2023-02-26T07:11:08.768Z,2.40
2023-02-26T07:13:11.604Z,2.40
2023-02-26T07:15:14.846Z,3.40
2023-02-26T07:17:20.820Z,4.33
2023-02-26T07:19:23.675Z,4.43
2023-02-26T07:21:26.655Z,5.57
2023-02-26T07:23:29.789Z,5.53
2023-02-26T07:25:32.770Z,10.43
2023-02-26T07:27:37.310Z,13.00
2023-02-26T07:29:40.213Z,6.37
2023-02-26T07:31:43.196Z,7.33
2023-02-26T07:33:46.367Z,7.57
2023-02-26T07:35:49.493Z,3.93
2023-02-26T07:37:52.656Z,3.40
2023-02-26T07:39:55.544Z,3.60
2023-02-26T07:41:58.310Z,2.60
2023-02-26T07:44:02.575Z,1.90
2023-02-26T07:46:06.184Z,3.03
2023-02-26T07:48:09.436Z,1.73
2023-02-26T07:50:13.125Z,1.30
2023-02-26T07:52:16.642Z,1.30
2023-02-26T07:54:20.012Z,1.43
2023-02-26T07:56:22.834Z,1.10
2023-02-26T07:58:25.646Z,1.20
2023-02-26T08:00:29.825Z,1.10
2023-02-26T08:02:32.680Z,1.30
2023-02-26T08:04:35.572Z,1.30
2023-02-26T08:06:38.789Z,1.27
2023-02-26T08:08:41.604Z,1.50
2023-02-26T08:10:44.496Z,1.50
2023-02-26T08:12:47.391Z,1.53
2023-02-26T08:14:50.215Z,1.83
2023-02-26T08:16:54.613Z,1.30
2023-02-26T08:18:57.487Z,1.50
2023-02-26T08:21:00.560Z,1.10
2023-02-26T08:23:03.503Z,1.30
2023-02-26T08:25:07.081Z,1.27
2023-02-26T08:27:10.948Z,1.33
2023-02-26T08:29:14.515Z,1.13
2023-02-26T08:31:18.026Z,1.23
2023-02-26T08:33:25.305Z,1.40
2023-02-26T08:35:28.576Z,1.07
2023-02-26T08:37:31.356Z,0.90
2023-02-26T08:39:38.364Z,1.30
2023-02-26T08:41:41.239Z,1.00
2023-02-26T08:43:44.441Z,3.07
2023-02-26T08:45:48.651Z,1.53
2023-02-26T08:47:56.991Z,1.30
2023-02-26T08:50:01.563Z,0.97
2023-02-26T08:52:04.570Z,1.20
2023-02-26T08:54:07.382Z,1.20
2023-02-26T08:56:10.264Z,1.60
2023-02-26T08:58:13.053Z,1.17
2023-02-26T09:00:18.848Z,6.93
2023-02-26T09:02:21.726Z,2.20
2023-02-26T09:04:24.533Z,1.20
2023-02-26T09:06:28.820Z,1.00
2023-02-26T09:08:33.885Z,0.90
2023-02-26T09:10:36.744Z,1.60
2023-02-26T09:12:39.621Z,1.40
2023-02-26T09:14:42.458Z,1.43
2023-02-26T09:16:45.417Z,1.40
2023-02-26T09:18:48.222Z,1.20
2023-02-26T09:20:51.230Z,1.30
2023-02-26T09:22:55.674Z,1.17
2023-02-26T09:24:58.552Z,0.87
2023-02-26T09:27:03.557Z,0.90
2023-02-26T09:29:06.353Z,0.80
2023-02-26T09:31:09.367Z,0.80
2023-02-26T09:33:12.323Z,1.10
2023-02-26T09:35:15.172Z,1.10
2023-02-26T09:37:18.882Z,1.20
2023-02-26T09:39:24.539Z,1.13
2023-02-26T09:41:31.106Z,1.27
2023-02-26T09:44:02.069Z,0.90
2023-02-26T09:46:11.970Z,0.90
2023-02-26T09:48:18.676Z,1.00
2023-02-26T09:50:25.643Z,1.00
2023-02-26T09:52:33.336Z,0.90
2023-02-26T09:54:44.531Z,1.00
2023-02-26T09:56:49.341Z,0.70
2023-02-26T09:58:55.684Z,0.80
2023-02-26T10:01:05.886Z,0.77
2023-02-26T10:03:20.492Z,0.80
2023-02-26T10:05:27.789Z,1.00
2023-02-26T10:07:40.303Z,0.80
2023-02-26T10:09:58.039Z,1.03
2023-02-26T10:12:05.578Z,0.90
2023-02-26T10:14:16.447Z,0.90
2023-02-26T10:16:23.532Z,1.07
2023-02-26T10:18:31.421Z,0.87
2023-02-26T10:20:40.688Z,0.67
2023-02-26T10:22:48.546Z,0.90
2023-02-26T10:24:58.057Z,1.00
2023-02-26T10:27:06.798Z,1.00
2023-02-26T10:29:18.697Z,0.90
2023-02-26T10:31:28.417Z,0.80
2023-02-26T10:33:39.593Z,1.07
2023-02-26T10:35:48.920Z,1.17
2023-02-26T10:37:58.845Z,1.10
2023-02-26T10:40:10.648Z,1.00
2023-02-26T10:42:16.963Z,1.27
2023-02-26T10:44:26.122Z,1.10
2023-02-26T10:46:35.369Z,1.00
2023-02-26T10:48:56.018Z,1.10
2023-02-26T10:51:01.510Z,0.80
2023-02-26T10:53:06.009Z,0.90
2023-02-26T10:55:25.012Z,1.07
2023-02-26T10:57:33.185Z,0.90
2023-02-26T10:59:36.056Z,1.13
2023-02-26T11:01:39.153Z,0.90
2023-02-26T11:03:46.062Z,0.80
2023-02-26T11:05:49.558Z,1.00
2023-02-26T11:07:55.851Z,0.80
2023-02-26T11:10:00.139Z,0.93
2023-02-26T11:12:07.243Z,0.90
2023-02-26T11:14:11.531Z,1.00
2023-02-26T11:16:18.521Z,0.87
2023-02-26T11:18:26.116Z,1.07
2023-02-26T11:20:37.221Z,0.90
2023-02-26T11:22:40.538Z,0.90
2023-02-26T11:24:47.016Z,0.90
2023-02-26T11:26:52.056Z,0.87
2023-02-26T11:28:56.794Z,1.10
2023-02-26T11:31:03.048Z,0.93
2023-02-26T11:33:16.539Z,1.10
2023-02-26T11:35:21.424Z,0.87
2023-02-26T11:37:28.848Z,1.00
2023-02-26T11:39:36.581Z,0.90
2023-02-26T11:41:40.700Z,0.80
2023-02-26T11:43:46.195Z,1.00
2023-02-26T11:45:55.465Z,1.10
2023-02-26T11:48:03.101Z,1.00
2023-02-26T11:50:17.006Z,0.93
2023-02-26T11:52:24.247Z,1.10
2023-02-26T11:54:30.173Z,0.93
2023-02-26T11:56:36.921Z,0.87
2023-02-26T11:58:42.303Z,1.10
2023-02-26T12:00:46.553Z,1.00
2023-02-26T12:02:50.865Z,1.03
2023-02-26T12:04:56.144Z,0.90
2023-02-26T12:06:58.983Z,0.90
2023-02-26T12:09:13.054Z,0.97
2023-02-26T12:11:37.617Z,0.90
2023-02-26T12:13:45.640Z,1.60
2023-02-26T12:15:55.029Z,1.00
2023-02-26T12:18:15.834Z,1.10
2023-02-26T12:20:26.154Z,0.83
2023-02-26T12:22:42.265Z,1.00
2023-02-26T12:25:01.084Z,1.10
2023-02-26T12:27:13.349Z,1.00
2023-02-26T12:29:33.092Z,1.37
2023-02-26T12:32:05.358Z,1.40
2023-02-26T12:34:26.309Z,1.50
2023-02-26T12:36:49.024Z,1.00
2023-02-26T12:39:05.255Z,0.70
2023-02-26T12:41:24.119Z,0.80
2023-02-26T12:43:36.411Z,1.10
2023-02-26T12:45:48.613Z,0.77
2023-02-26T12:48:08.698Z,0.80
2023-02-26T12:50:29.173Z,0.90
2023-02-26T12:52:54.941Z,0.90
2023-02-26T12:55:11.949Z,0.87
2023-02-26T12:57:53.203Z,0.90
2023-02-26T13:00:14.310Z,0.90
2023-02-26T13:02:49.608Z,0.90
2023-02-26T13:05:16.944Z,0.80
2023-02-26T13:07:38.788Z,2.00
2023-02-26T13:09:54.692Z,0.63
2023-02-26T13:12:09.659Z,0.90
2023-02-26T13:14:29.391Z,0.80
2023-02-26T13:16:43.119Z,0.73
2023-02-26T13:18:52.361Z,0.90
2023-02-26T13:21:00.538Z,0.93
2023-02-26T13:23:11.289Z,0.97
2023-02-26T13:25:24.768Z,0.93
2023-02-26T13:27:33.859Z,1.00
2023-02-26T13:29:40.236Z,0.90
2023-02-26T13:31:46.698Z,0.87
2023-02-26T13:33:51.717Z,1.00
2023-02-26T13:35:56.472Z,1.30
2023-02-26T13:38:02.793Z,1.50
2023-02-26T13:40:27.351Z,1.30
2023-02-26T13:42:38.676Z,1.10
2023-02-26T13:44:55.996Z,0.80
2023-02-26T13:47:22.195Z,1.00
2023-02-26T13:49:36.065Z,1.00
2023-02-26T13:51:41.915Z,1.00
2023-02-26T13:53:54.583Z,1.20
2023-02-26T13:56:08.386Z,1.30
2023-02-26T13:58:19.207Z,1.50
2023-02-26T14:00:28.600Z,1.80
2023-02-26T14:02:46.104Z,1.57
2023-02-26T14:04:53.079Z,1.70
2023-02-26T14:06:58.253Z,1.43
2023-02-26T14:09:06.067Z,1.20
2023-02-26T14:11:41.793Z,1.30
2023-02-26T14:14:08.245Z,1.00
2023-02-26T14:16:13.951Z,1.40
2023-02-26T14:18:36.372Z,0.90
2023-02-26T14:20:41.005Z,1.23
2023-02-26T14:22:47.796Z,1.10
2023-02-26T14:24:56.704Z,1.00
2023-02-26T14:27:24.790Z,0.80
2023-02-26T14:29:40.905Z,0.83
2023-02-26T14:32:07.483Z,1.00
2023-02-26T14:34:16.590Z,0.90
2023-02-26T14:36:28.891Z,0.80
2023-02-26T14:38:37.110Z,0.70
2023-02-26T14:40:44.452Z,0.80
2023-02-26T14:42:52.977Z,1.00
2023-02-26T14:45:04.957Z,0.90
2023-02-26T14:47:08.835Z,0.80
2023-02-26T14:49:18.593Z,1.10
2023-02-26T14:51:30.344Z,0.97
2023-02-26T14:53:53.103Z,1.03
2023-02-26T14:56:07.393Z,0.83
2023-02-26T14:58:23.292Z,1.10
2023-02-26T15:00:34.287Z,0.90
2023-02-26T15:02:52.528Z,1.00
2023-02-26T15:05:15.187Z,1.00
2023-02-26T15:07:32.784Z,0.87
2023-02-26T15:09:52.576Z,0.90
2023-02-26T15:12:07.992Z,1.10
2023-02-26T15:14:30.843Z,0.90
2023-02-26T15:16:46.263Z,1.20
2023-02-26T15:19:03.704Z,1.13
2023-02-26T15:21:15.089Z,1.23
2023-02-26T15:23:34.529Z,0.90
2023-02-26T15:25:41.540Z,1.03
2023-02-26T15:27:44.478Z,1.10
2023-02-26T15:29:52.280Z,1.10
2023-02-26T15:32:01.334Z,1.10
2023-02-26T15:34:04.865Z,1.17
2023-02-26T15:36:13.066Z,1.30
2023-02-26T15:38:15.846Z,1.07
2023-02-26T15:40:19.857Z,1.00
2023-02-26T15:42:26.157Z,1.00
2023-02-26T15:44:32.833Z,0.90
2023-02-26T15:46:40.308Z,0.90
2023-02-26T15:48:44.639Z,0.97
2023-02-26T15:50:53.315Z,1.00
2023-02-26T15:53:00.714Z,0.70
2023-02-26T15:55:06.383Z,1.00
2023-02-26T15:57:10.376Z,1.50
2023-02-26T15:59:17.284Z,0.90
2023-02-26T16:01:23.654Z,1.00
2023-02-26T16:03:29.228Z,1.00
2023-02-26T16:05:32.271Z,0.93
2023-02-26T16:07:35.488Z,0.90
2023-02-26T16:09:41.499Z,1.00
2023-02-26T16:11:46.352Z,0.90
2023-02-26T16:13:52.009Z,1.10
2023-02-26T16:15:54.949Z,1.07
2023-02-26T16:17:59.080Z,1.10
2023-02-26T16:20:05.861Z,0.80
2023-02-26T16:22:25.318Z,1.00
2023-02-26T16:24:30.214Z,0.90
2023-02-26T16:26:35.873Z,1.10
2023-02-26T16:28:45.679Z,1.00
2023-02-26T16:30:53.091Z,1.20
2023-02-26T16:32:59.361Z,1.70
2023-02-26T16:35:11.871Z,1.70
2023-02-26T16:37:26.940Z,1.77
2023-02-26T16:39:32.470Z,2.33
2023-02-26T16:41:37.301Z,2.50
2023-02-26T16:43:57.036Z,1.80
2023-02-26T16:46:02.156Z,1.90
2023-02-26T16:48:13.141Z,1.70
2023-02-26T16:50:20.252Z,1.97
2023-02-26T16:52:26.822Z,2.30
2023-02-26T16:54:34.176Z,2.13
2023-02-26T16:56:41.363Z,1.90
2023-02-26T16:58:45.734Z,1.77
2023-02-26T17:00:54.109Z,1.97
2023-02-26T17:02:58.944Z,1.73
2023-02-26T17:05:04.908Z,1.60
2023-02-26T17:07:23.877Z,2.67
2023-02-26T17:09:35.078Z,3.27
2023-02-26T17:11:43.448Z,10.60
2023-02-26T17:13:58.179Z,4.03
2023-02-26T17:16:04.215Z,41.37
2023-02-26T17:18:08.458Z,15.30
2023-02-26T17:20:13.126Z,29.17
2023-02-26T17:22:29.126Z,7.93
2023-02-26T17:24:34.517Z,14.83
2023-02-26T17:26:37.303Z,9.77
2023-02-26T17:28:43.777Z,6.80
2023-02-26T17:30:46.854Z,17.30
2023-02-26T17:32:49.767Z,15.93
2023-02-26T17:34:52.587Z,15.70
2023-02-26T17:36:57.322Z,20.00
2023-02-26T17:39:01.676Z,23.97
2023-02-26T17:41:04.825Z,15.03
2023-02-26T17:43:09.911Z,15.60
2023-02-26T17:45:12.989Z,3.73
2023-02-26T17:47:17.789Z,2.90
2023-02-26T17:49:20.589Z,9.40
2023-02-26T17:51:23.797Z,8.80
2023-02-26T17:53:28.241Z,9.20
2023-02-26T17:55:32.879Z,10.83
2023-02-26T17:57:35.692Z,8.17
2023-02-26T17:59:38.637Z,16.83
2023-02-26T18:01:41.582Z,13.17
2023-02-26T18:03:44.454Z,6.20
2023-02-26T18:05:47.682Z,6.83
2023-02-26T18:07:50.548Z,4.43
2023-02-26T18:09:53.463Z,3.97
2023-02-26T18:11:57.683Z,3.73
2023-02-26T18:14:01.252Z,3.87
2023-02-26T18:16:04.829Z,8.70
2023-02-26T18:18:07.657Z,11.73
2023-02-26T18:20:17.850Z,13.53
2023-02-26T18:22:25.250Z,10.20
2023-02-26T18:24:28.039Z,13.67
2023-02-26T18:26:33.798Z,9.33
2023-02-26T18:28:37.965Z,7.40
2023-02-26T18:30:43.529Z,6.07
2023-02-26T18:32:46.386Z,4.97
2023-02-26T18:34:50.401Z,5.00
2023-02-26T18:36:53.425Z,10.23
2023-02-26T18:38:59.579Z,7.00
2023-02-26T18:41:02.816Z,6.33
2023-02-26T18:43:07.004Z,3.83
2023-02-26T18:45:12.742Z,4.00
2023-02-26T18:47:15.750Z,3.63
2023-02-26T18:49:21.016Z,3.50
2023-02-26T18:51:23.848Z,3.80
2023-02-26T18:53:27.582Z,3.10
2023-02-26T18:55:30.476Z,3.00
2023-02-26T18:57:33.877Z,3.60
2023-02-26T18:59:37.284Z,3.00
2023-02-26T19:01:41.739Z,3.60
2023-02-26T19:03:44.576Z,3.37
2023-02-26T19:05:47.387Z,3.37
2023-02-26T19:07:50.557Z,3.60
2023-02-26T19:09:53.506Z,4.23
2023-02-26T19:11:56.488Z,3.40
2023-02-26T19:13:59.441Z,3.20
2023-02-26T19:16:02.310Z,6.40
2023-02-26T19:18:06.909Z,2.90
2023-02-26T19:20:11.512Z,2.67
2023-02-26T19:22:15.603Z,2.43
2023-02-26T19:24:18.548Z,1.90
2023-02-26T19:26:22.492Z,2.10
2023-02-26T19:28:25.421Z,2.20
2023-02-26T19:30:28.437Z,2.30
2023-02-26T19:32:31.914Z,6.77
2023-02-26T19:34:36.800Z,2.90
2023-02-26T19:36:42.872Z,3.50
2023-02-26T19:38:47.645Z,2.73
2023-02-26T19:40:51.351Z,3.20
2023-02-26T19:42:54.149Z,2.83
2023-02-26T19:44:57.134Z,2.93
2023-02-26T19:47:00.748Z,3.30
2023-02-26T19:49:03.797Z,4.33
2023-02-26T19:51:08.428Z,5.23
2023-02-26T19:53:11.556Z,10.33
2023-02-26T19:55:15.342Z,14.60
2023-02-26T19:57:18.230Z,14.13
2023-02-26T19:59:21.217Z,12.53
2023-02-26T20:01:24.681Z,12.80
2023-02-26T20:03:27.750Z,15.03
2023-02-26T20:05:30.561Z,14.67
2023-02-26T20:07:35.020Z,14.10
2023-02-26T20:09:37.922Z,11.73
2023-02-26T20:11:40.713Z,10.00
2023-02-26T20:13:43.852Z,7.90
2023-02-26T20:15:47.160Z,6.63
2023-02-26T20:17:50.077Z,5.87
2023-02-26T20:19:52.956Z,5.40
2023-02-26T20:21:55.938Z,4.60
2023-02-26T20:24:00.096Z,4.10
2023-02-26T20:26:05.615Z,4.40
2023-02-26T20:28:08.470Z,3.47
2023-02-26T20:30:12.784Z,3.00
2023-02-26T20:32:16.317Z,3.50
2023-02-26T20:34:20.237Z,3.17
2023-02-26T20:36:23.718Z,3.03
2023-02-26T20:38:27.827Z,6.67
2023-02-26T20:40:31.980Z,5.50
2023-02-26T20:42:35.316Z,4.60
2023-02-26T20:44:38.167Z,3.97
2023-02-26T20:46:41.098Z,2.90
2023-02-26T20:48:44.759Z,2.53
2023-02-26T20:50:47.832Z,2.80
2023-02-26T20:52:50.703Z,3.37
2023-02-26T20:54:53.637Z,2.70
2023-02-26T20:56:58.120Z,3.17
2023-02-26T20:59:01.122Z,2.60
2023-02-26T21:01:04.059Z,2.40
2023-02-26T21:03:07.927Z,3.60
2023-02-26T21:05:11.921Z,2.30
2023-02-26T21:07:22.089Z,2.00
2023-02-26T21:09:24.914Z,1.87
2023-02-26T21:11:30.744Z,1.70
2023-02-26T21:13:35.220Z,1.47
2023-02-26T21:15:38.292Z,1.37
2023-02-26T21:17:43.180Z,1.60
2023-02-26T21:19:46.174Z,1.43
2023-02-26T21:21:48.987Z,1.40
2023-02-26T21:23:53.115Z,1.33
2023-02-26T21:25:55.909Z,1.30
2023-02-26T21:27:59.132Z,1.20
2023-02-26T21:30:04.786Z,1.30
2023-02-26T21:32:08.054Z,1.40
2023-02-26T21:34:32.167Z,1.23
2023-02-26T21:36:33.779Z,1.33
2023-02-26T21:38:36.639Z,0.90
2023-02-26T21:40:39.609Z,1.00
2023-02-26T21:42:42.831Z,1.30
2023-02-26T21:44:47.455Z,0.80
2023-02-26T21:46:52.740Z,1.10
2023-02-26T21:48:55.775Z,1.37
2023-02-26T21:50:59.881Z,1.13
2023-02-26T21:53:02.755Z,0.77
2023-02-26T21:55:06.388Z,1.10
2023-02-26T21:57:09.597Z,1.07
2023-02-26T21:59:12.461Z,0.93
2023-02-26T22:01:15.425Z,1.23
2023-02-26T22:03:19.675Z,1.00
2023-02-26T22:05:22.563Z,3.13
2023-02-26T22:07:25.698Z,1.40
2023-02-26T22:09:28.799Z,1.30
2023-02-26T22:11:31.992Z,1.07
2023-02-26T22:13:34.783Z,1.10
2023-02-26T22:15:37.668Z,1.10
2023-02-26T22:17:40.983Z,1.03
2023-02-26T22:19:45.340Z,1.50
2023-02-26T22:21:48.213Z,1.20
2023-02-26T22:23:51.463Z,0.90
2023-02-26T22:25:54.561Z,1.00
2023-02-26T22:27:57.424Z,1.10
2023-02-26T22:30:00.369Z,0.90
2023-02-26T22:32:03.480Z,1.10
2023-02-26T22:34:06.378Z,1.07
2023-02-26T22:36:11.323Z,1.00
2023-02-26T22:38:14.429Z,1.00
2023-02-26T22:40:17.642Z,0.90
2023-02-26T22:42:20.585Z,1.10
2023-02-26T22:44:23.338Z,1.10
2023-02-26T22:46:28.339Z,1.40
2023-02-26T22:48:31.369Z,1.10
2023-02-26T22:50:34.201Z,1.20
2023-02-26T22:52:38.312Z,1.17
2023-02-26T22:54:41.460Z,1.20
2023-02-26T22:56:44.300Z,1.00
2023-02-26T22:58:47.060Z,1.13
2023-02-26T23:00:49.859Z,1.13
2023-02-26T23:02:52.695Z,1.00
2023-02-26T23:04:55.513Z,1.17
2023-02-26T23:06:58.609Z,1.00
2023-02-26T23:09:02.830Z,1.13
2023-02-26T23:11:07.086Z,1.30
2023-02-26T23:13:09.898Z,1.20
2023-02-26T23:15:12.989Z,1.20
2023-02-26T23:17:16.090Z,0.93
2023-02-26T23:19:19.353Z,1.13
2023-02-26T23:21:22.310Z,1.20
2023-02-26T23:23:25.375Z,1.40
2023-02-26T23:25:29.543Z,1.20
2023-02-26T23:27:32.589Z,1.03
2023-02-26T23:29:35.499Z,1.40
2023-02-26T23:31:38.353Z,1.30
2023-02-26T23:33:41.206Z,1.30
2023-02-26T23:35:43.960Z,1.37
2023-02-26T23:37:46.762Z,1.33
2023-02-26T23:39:49.558Z,1.13
2023-02-26T23:41:53.691Z,1.00
2023-02-26T23:43:56.535Z,1.20
2023-02-26T23:45:59.545Z,1.27
2023-02-26T23:48:02.334Z,1.20
2023-02-26T23:50:06.348Z,1.20
2023-02-26T23:52:09.316Z,1.30
2023-02-26T23:54:12.356Z,1.30
2023-02-26T23:56:15.196Z,1.03
2023-02-26T23:58:19.804Z,1.20
